Time;durP1;ratioP1;P1;durP2;ratioP2;P2;SDS_P1;SDS_P2;PMS_P1;PMS_P2;Temp;Humidity;BMP_temperature;BMP_pressure;BME280_temperature;BME280_humidity;BME280_pressure;Samples;Min_cycle;Max_cycle;Signal;HPM_P1;HPM_P2
2021/03/14 00:00:58;;;;;;;6.40;3.40;;;8.40;99.90;;;;;;5076328;28;20224;-87
2021/03/14 00:03:27;;;;;;;7.77;3.33;;;8.30;99.90;;;;;;5043682;28;20566;-90
2021/03/14 00:05:53;;;;;;;11.67;5.93;;;8.40;99.90;;;;;;5037986;28;20255;-90
2021/03/14 00:08:20;;;;;;;7.73;4.10;;;8.40;99.90;;;;;;5036460;28;20183;-86
2021/03/14 00:10:58;;;;;;;19.27;5.93;;;8.50;99.90;;;;;;5058289;28;20276;-85
2021/03/14 00:13:29;;;;;;;17.17;8.27;;;8.50;99.90;;;;;;5058639;28;20222;-86
2021/03/14 00:15:55;;;;;;;12.40;6.10;;;8.40;99.90;;;;;;5062694;28;20175;-90
2021/03/14 00:18:32;;;;;;;6.73;3.23;;;8.30;99.90;;;;;;5056576;28;20199;-90
2021/03/14 00:20:58;;;;;;;5.90;3.30;;;8.20;99.90;;;;;;5055148;28;20199;-90
2021/03/14 00:23:24;;;;;;;6.97;3.43;;;8.20;99.90;;;;;;5054827;28;20172;-89
2021/03/14 00:25:50;;;;;;;4.93;3.20;;;8.20;99.90;;;;;;5021742;28;20230;-90
2021/03/14 00:28:18;;;;;;;10.13;4.33;;;8.20;99.90;;;;;;5023000;28;20617;-89
2021/03/14 00:30:47;;;;;;;7.03;3.37;;;8.20;99.90;;;;;;5039269;28;20214;-88
2021/03/14 00:33:13;;;;;;;4.77;2.40;;;8.10;99.90;;;;;;5039879;28;20184;-88
2021/03/14 00:35:39;;;;;;;6.83;3.67;;;8.20;99.90;;;;;;5055631;28;20175;-89
2021/03/14 00:38:05;;;;;;;5.97;3.00;;;8.20;99.90;;;;;;5022411;28;20535;-89
2021/03/14 00:40:30;;;;;;;5.30;3.17;;;8.20;99.90;;;;;;5056280;28;20188;-88
2021/03/14 00:42:59;;;;;;;8.20;3.63;;;8.20;99.90;;;;;;5020280;28;20613;-88
2021/03/14 00:45:24;;;;;;;5.67;2.50;;;8.20;99.90;;;;;;5020544;28;20238;-90
2021/03/14 00:47:50;;;;;;;6.33;3.53;;;8.10;99.90;;;;;;5037003;28;20212;-87
2021/03/14 00:50:16;;;;;;;15.70;7.33;;;8.10;99.90;;;;;;5054418;28;20208;-89
2021/03/14 00:52:42;;;;;;;19.60;8.13;;;8.10;99.90;;;;;;5037111;28;20285;-89
2021/03/14 00:55:08;;;;;;;9.73;5.07;;;8.10;99.90;;;;;;5036125;28;20203;-90
2021/03/14 00:57:34;;;;;;;4.73;2.93;;;8.00;99.90;;;;;;5054728;28;20187;-89
2021/03/14 00:59:59;;;;;;;8.70;2.53;;;8.00;99.90;;;;;;5036449;28;20243;-88
2021/03/14 01:02:25;;;;;;;8.17;2.27;;;8.00;99.90;;;;;;5037014;28;20179;-87
2021/03/14 01:04:51;;;;;;;3.77;2.40;;;8.00;99.90;;;;;;5054359;28;20176;-87
2021/03/14 01:07:16;;;;;;;4.30;2.93;;;8.10;99.90;;;;;;5054277;28;20223;-87
2021/03/14 01:09:42;;;;;;;9.30;3.07;;;8.20;99.90;;;;;;5036916;28;20299;-90
2021/03/14 01:12:08;;;;;;;5.50;3.57;;;7.80;99.90;;;;;;5036369;28;20214;-89
2021/03/14 01:14:35;;;;;;;6.27;3.40;;;7.30;99.90;;;;;;5020563;28;20183;-89
2021/03/14 01:17:00;;;;;;;6.80;3.50;;;7.00;99.90;;;;;;5053966;28;20211;-89
2021/03/14 01:19:26;;;;;;;3.83;2.37;;;6.60;99.90;;;;;;5020075;28;20208;-89
2021/03/14 01:21:52;;;;;;;3.70;2.60;;;6.40;99.90;;;;;;5036481;28;20254;-89
2021/03/14 01:24:17;;;;;;;5.83;2.70;;;6.20;99.90;;;;;;5019848;28;20230;-89
2021/03/14 01:26:43;;;;;;;4.37;1.83;;;6.00;99.90;;;;;;5036262;28;20175;-91
2021/03/14 01:29:09;;;;;;;2.37;1.70;;;5.80;99.90;;;;;;5053198;28;20256;-89
2021/03/14 01:31:34;;;;;;;3.63;1.80;;;5.80;99.90;;;;;;5035620;28;20188;-89
2021/03/14 01:34:00;;;;;;;3.67;1.60;;;5.60;99.90;;;;;;5035072;28;20183;-89
2021/03/14 01:36:26;;;;;;;2.67;1.47;;;5.50;99.90;;;;;;5053668;28;20225;-89
2021/03/14 01:38:51;;;;;;;1.63;1.30;;;5.40;99.90;;;;;;5053529;28;20194;-89
2021/03/14 01:41:17;;;;;;;2.83;1.20;;;5.40;99.90;;;;;;5035019;28;20249;-90
2021/03/14 01:43:42;;;;;;;1.80;0.90;;;5.40;99.90;;;;;;5035484;28;20183;-90
2021/03/14 01:46:09;;;;;;;1.37;1.00;;;5.30;99.90;;;;;;5018295;28;20188;-89
2021/03/14 01:48:36;;;;;;;2.90;1.10;;;5.30;99.90;;;;;;5053152;28;20183;-90
2021/03/14 01:51:03;;;;;;;2.60;1.00;;;5.30;99.90;;;;;;5018563;28;20252;-90
2021/03/14 01:53:29;;;;;;;1.67;0.93;;;5.30;99.90;;;;;;5035364;28;20229;-90
2021/03/14 01:55:56;;;;;;;2.07;1.03;;;5.20;99.90;;;;;;5035412;28;20199;-90
2021/03/14 01:58:23;;;;;;;1.10;0.80;;;5.20;99.90;;;;;;5053026;28;20209;-89
2021/03/14 02:00:52;;;;;;;3.07;1.27;;;5.10;99.90;;;;;;5053137;28;20234;-91
2021/03/14 02:03:23;;;;;;;0.90;0.90;;;5.20;99.90;;;;;;5019339;28;20183;-91
2021/03/14 02:05:50;;;;;;;2.67;1.20;;;5.20;99.90;;;;;;5035717;28;20187;-90
2021/03/14 02:08:16;;;;;;;0.90;0.67;;;5.20;99.90;;;;;;5053862;28;20183;-90
2021/03/14 02:10:42;;;;;;;2.53;1.03;;;5.20;99.90;;;;;;5019549;28;20221;-90
2021/03/14 02:13:14;;;;;;;2.10;1.20;;;5.20;99.90;;;;;;5054389;28;20202;-92
2021/03/14 02:15:45;;;;;;;1.60;1.00;;;5.20;99.90;;;;;;5054310;28;20186;-90
2021/03/14 02:18:12;;;;;;;1.43;1.17;;;5.20;99.90;;;;;;5036354;28;20252;-91
2021/03/14 02:20:39;;;;;;;2.20;1.30;;;5.20;99.90;;;;;;5036327;28;20197;-91
2021/03/14 02:23:23;;;;;;;1.77;1.40;;;5.30;99.90;;;;;;5019950;28;20183;-91
2021/03/14 02:26:40;;;;;;;5.83;1.77;;;5.20;99.90;;;;;;5035677;28;20188;-92
2021/03/14 02:29:19;;;;;;;4.43;1.30;;;5.20;99.90;;;;;;5001704;28;20207;-91
2021/03/14 02:31:46;;;;;;;2.10;1.40;;;5.20;99.90;;;;;;5054627;28;20164;-92
2021/03/14 02:34:15;;;;;;;3.23;1.73;;;5.20;99.90;;;;;;5035535;28;20176;-91
2021/03/14 02:36:44;;;;;;;2.97;1.73;;;5.20;99.90;;;;;;5035567;28;20178;-92
2021/03/14 02:39:13;;;;;;;2.10;1.57;;;5.20;99.90;;;;;;5035057;28;20253;-91
2021/03/14 02:41:41;;;;;;;1.70;1.53;;;5.20;99.90;;;;;;5053242;28;20204;-92
2021/03/14 02:44:08;;;;;;;2.60;1.80;;;5.20;99.90;;;;;;5035626;28;20534;-91
2021/03/14 02:46:35;;;;;;;2.30;1.50;;;5.20;99.90;;;;;;5053219;28;20176;-91
2021/03/14 02:49:01;;;;;;;4.77;2.07;;;5.20;99.90;;;;;;5053356;28;20176;-92
2021/03/14 02:51:27;;;;;;;2.47;2.10;;;5.20;99.90;;;;;;5035549;28;20321;-91
2021/03/14 02:53:55;;;;;;;2.23;1.80;;;5.50;99.90;;;;;;5035463;28;20175;-93
2021/03/14 02:56:21;;;;;;;4.83;2.33;;;5.20;99.90;;;;;;5018950;28;20183;-91
2021/03/14 02:58:48;;;;;;;3.63;2.77;;;5.20;99.90;;;;;;5036814;28;20662;-90
2021/03/14 03:01:15;;;;;;;10.33;4.30;;;5.20;99.90;;;;;;5022152;28;20322;-92
2021/03/14 03:03:41;;;;;;;27.57;9.97;;;5.20;99.90;;;;;;5022410;28;20187;-92
2021/03/14 03:06:08;;;;;;;4.93;2.93;;;5.30;99.90;;;;;;5039089;28;20187;-91
2021/03/14 03:08:37;;;;;;;9.43;4.93;;;5.30;99.90;;;;;;5022671;28;20188;-92
2021/03/14 03:11:11;;;;;;;8.10;5.57;;;5.30;99.90;;;;;;5023007;28;20250;-92
2021/03/14 03:13:37;;;;;;;14.63;8.53;;;5.30;99.90;;;;;;5039138;28;20559;-93
2021/03/14 03:16:07;;;;;;;14.03;7.73;;;5.30;99.90;;;;;;5039451;28;20190;-92
2021/03/14 03:18:33;;;;;;;8.53;5.37;;;5.30;99.90;;;;;;5039356;28;20276;-93
2021/03/14 03:21:00;;;;;;;10.60;5.70;;;5.30;99.90;;;;;;5040340;28;20229;-92
2021/03/14 03:23:26;;;;;;;19.27;9.00;;;5.30;99.90;;;;;;5023157;28;20187;-93
2021/03/14 03:25:51;;;;;;;17.30;7.87;;;5.30;99.90;;;;;;5022448;28;20214;-91
2021/03/14 03:28:17;;;;;;;7.40;5.80;;;5.30;99.90;;;;;;5022527;28;20282;-92
2021/03/14 03:30:44;;;;;;;7.00;5.00;;;5.30;99.90;;;;;;5022588;28;20298;-93
2021/03/14 03:33:10;;;;;;;7.37;4.53;;;5.30;99.90;;;;;;5022565;28;20236;-93
2021/03/14 03:35:36;;;;;;;8.77;5.03;;;5.40;99.90;;;;;;5022583;28;20271;-92
2021/03/14 03:38:03;;;;;;;8.83;4.90;;;5.30;99.90;;;;;;5039418;28;20184;-93
2021/03/14 03:40:31;;;;;;;6.23;4.80;;;5.50;99.90;;;;;;5039239;28;20180;-93
2021/03/14 03:43:17;;;;;;;9.37;5.67;;;5.40;99.90;;;;;;5039438;28;20172;-91
2021/03/14 03:45:45;;;;;;;5.50;4.30;;;5.50;99.90;;;;;;5038604;28;20204;-91
2021/03/14 03:48:14;;;;;;;9.60;5.77;;;5.50;99.90;;;;;;5021972;28;20188;-93
2021/03/14 03:50:41;;;;;;;8.17;4.30;;;5.50;99.90;;;;;;5038437;28;20223;-90
2021/03/14 03:53:08;;;;;;;5.57;4.43;;;5.60;99.90;;;;;;5037605;28;20184;-88
2021/03/14 03:55:34;;;;;;;7.40;4.70;;;5.60;99.90;;;;;;5037666;28;20211;-90
2021/03/14 03:58:02;;;;;;;5.97;4.07;;;5.70;99.90;;;;;;5021467;28;20198;-90
2021/03/14 04:00:28;;;;;;;8.77;5.00;;;5.80;99.90;;;;;;5024488;28;20261;-90
2021/03/14 04:02:57;;;;;;;19.43;9.50;;;5.80;99.90;;;;;;5023497;28;20183;-93
2021/03/14 04:05:23;;;;;;;8.63;5.20;;;5.90;99.90;;;;;;5056730;28;20176;-92
2021/03/14 04:07:50;;;;;;;7.13;4.60;;;5.90;99.90;;;;;;5022620;28;20188;-91
2021/03/14 04:10:19;;;;;;;8.07;5.37;;;5.80;99.90;;;;;;5055001;28;20196;-90
2021/03/14 04:12:47;;;;;;;10.03;6.10;;;5.90;99.90;;;;;;5037241;28;20238;-89
2021/03/14 04:15:18;;;;;;;9.20;5.30;;;5.90;99.90;;;;;;5037052;28;20268;-90
2021/03/14 04:17:45;;;;;;;7.60;4.83;;;5.80;99.90;;;;;;5021408;28;20195;-90
2021/03/14 04:20:18;;;;;;;7.70;5.43;;;5.80;99.90;;;;;;5020329;28;20272;-90
2021/03/14 04:22:48;;;;;;;8.53;5.33;;;5.80;99.90;;;;;;5055456;28;20164;-89
2021/03/14 04:25:15;;;;;;;10.37;6.30;;;5.70;99.90;;;;;;5055130;28;20539;-89
2021/03/14 04:27:45;;;;;;;9.63;5.27;;;5.70;99.90;;;;;;5020826;28;20639;-89
2021/03/14 04:30:12;;;;;;;9.13;6.07;;;5.70;99.90;;;;;;5021799;28;20623;-90
2021/03/14 04:32:38;;;;;;;9.63;4.67;;;5.70;99.90;;;;;;5037184;28;20191;-90
2021/03/14 04:35:06;;;;;;;7.90;4.77;;;5.70;99.90;;;;;;5037773;28;20625;-90
2021/03/14 04:37:32;;;;;;;9.03;4.97;;;5.70;99.90;;;;;;5020511;28;20183;-90
2021/03/14 04:40:00;;;;;;;9.17;5.63;;;5.70;99.90;;;;;;5020716;28;20250;-90
2021/03/14 04:42:26;;;;;;;7.43;5.30;;;5.80;99.90;;;;;;5054789;28;20699;-90
2021/03/14 04:44:53;;;;;;;7.93;4.73;;;5.80;99.90;;;;;;5037426;28;20184;-89
2021/03/14 04:47:18;;;;;;;9.53;5.00;;;5.80;99.90;;;;;;5020613;28;20286;-88
2021/03/14 04:49:44;;;;;;;6.90;4.10;;;5.90;99.90;;;;;;5020392;28;20294;-88
2021/03/14 04:52:12;;;;;;;6.27;4.70;;;6.00;99.90;;;;;;5037177;28;20241;-90
2021/03/14 04:54:38;;;;;;;6.73;4.13;;;6.00;99.90;;;;;;5054682;28;20176;-90
2021/03/14 04:57:04;;;;;;;8.40;4.67;;;6.10;99.90;;;;;;5037246;28;20180;-88
2021/03/14 04:59:32;;;;;;;9.23;3.93;;;6.10;99.90;;;;;;5036259;28;20198;-89
2021/03/14 05:02:00;;;;;;;6.07;4.47;;;6.10;99.90;;;;;;5054713;28;20164;-90
2021/03/14 05:04:28;;;;;;;6.83;4.50;;;6.10;99.90;;;;;;5020240;28;20222;-90
2021/03/14 05:06:54;;;;;;;9.33;4.40;;;6.00;99.90;;;;;;5036906;28;20187;-90
2021/03/14 05:09:20;;;;;;;8.37;4.70;;;6.00;99.90;;;;;;5020361;28;20219;-90
2021/03/14 05:11:48;;;;;;;8.50;5.03;;;5.90;99.90;;;;;;5036257;28;20214;-90
2021/03/14 05:14:15;;;;;;;7.00;4.80;;;5.90;99.90;;;;;;5054335;28;20182;-90
2021/03/14 05:16:42;;;;;;;14.40;5.40;;;5.90;99.90;;;;;;5019816;28;20657;-92
2021/03/14 05:19:09;;;;;;;9.20;5.40;;;5.90;99.90;;;;;;5036803;28;20191;-90
2021/03/14 05:21:36;;;;;;;10.03;5.13;;;6.40;99.90;;;;;;5052986;28;20176;-90
2021/03/14 05:24:03;;;;;;;9.03;5.00;;;5.90;99.90;;;;;;5053561;28;20183;-90
2021/03/14 05:26:31;;;;;;;8.53;5.80;;;5.90;99.90;;;;;;5019609;28;20218;-91
2021/03/14 05:28:57;;;;;;;9.23;4.90;;;5.90;99.90;;;;;;5053437;28;20285;-91
2021/03/14 05:31:35;;;;;;;8.83;5.40;;;6.00;99.90;;;;;;5019751;28;20249;-91
2021/03/14 05:34:04;;;;;;;8.77;4.83;;;6.00;99.90;;;;;;5054136;28;20172;-91
2021/03/14 05:36:31;;;;;;;10.63;5.43;;;6.10;99.90;;;;;;5036009;28;20194;-90
2021/03/14 05:38:58;;;;;;;8.43;4.83;;;6.10;99.90;;;;;;5026345;28;20191;-90
2021/03/14 05:41:25;;;;;;;8.73;6.50;;;6.10;99.90;;;;;;5012029;28;20196;-89
2021/03/14 05:43:51;;;;;;;8.43;6.30;;;6.10;99.90;;;;;;5017051;28;20188;-90
2021/03/14 05:46:17;;;;;;;7.60;5.00;;;6.10;99.90;;;;;;5034323;28;20180;-92
2021/03/14 05:48:44;;;;;;;12.47;5.50;;;6.10;99.90;;;;;;5017614;28;20184;-91
2021/03/14 05:51:13;;;;;;;10.77;6.73;;;6.10;99.90;;;;;;5029307;28;20216;-90
2021/03/14 05:53:41;;;;;;;11.63;6.80;;;6.10;99.90;;;;;;5039012;28;20194;-87
2021/03/14 05:56:09;;;;;;;10.60;6.77;;;6.10;99.90;;;;;;5030876;28;20192;-87
2021/03/14 05:58:36;;;;;;;11.27;6.43;;;6.10;99.90;;;;;;5035523;28;20202;-86
2021/03/14 06:01:07;;;;;;;9.17;6.23;;;6.10;99.90;;;;;;5031321;28;20351;-86
2021/03/14 06:03:36;;;;;;;11.30;6.20;;;6.10;99.90;;;;;;5025766;28;20184;-90
2021/03/14 06:06:03;;;;;;;13.73;8.33;;;6.20;99.90;;;;;;5014766;28;20188;-90
2021/03/14 06:08:30;;;;;;;9.50;5.57;;;6.20;99.90;;;;;;5044412;28;20192;-87
2021/03/14 06:10:56;;;;;;;11.10;6.57;;;6.20;99.90;;;;;;5047894;28;20201;-85
2021/03/14 06:13:22;;;;;;;9.47;5.67;;;6.20;99.90;;;;;;5054968;28;20207;-86
2021/03/14 06:15:47;;;;;;;8.47;4.77;;;6.20;99.90;;;;;;5028891;28;20272;-88
2021/03/14 06:18:13;;;;;;;8.20;5.30;;;6.20;99.90;;;;;;5029369;28;20185;-90
2021/03/14 06:20:41;;;;;;;8.17;5.30;;;6.30;99.90;;;;;;4995434;28;20681;-88
2021/03/14 06:23:14;;;;;;;9.50;4.83;;;6.30;99.90;;;;;;5028746;28;20200;-89
2021/03/14 06:25:43;;;;;;;8.90;5.27;;;6.30;99.90;;;;;;5034482;28;20269;-93
2021/03/14 06:28:09;;;;;;;6.53;4.77;;;6.30;99.90;;;;;;5016686;28;20241;-93
2021/03/14 06:30:36;;;;;;;8.57;5.27;;;6.40;99.90;;;;;;5031680;28;20259;-89
2021/03/14 06:33:13;;;;;;;5.73;4.63;;;6.40;99.90;;;;;;5016468;28;20181;-92
2021/03/14 06:35:59;;;;;;;7.17;4.90;;;6.40;99.90;;;;;;5032710;28;20183;-91
2021/03/14 06:38:31;;;;;;;6.53;4.53;;;6.40;99.90;;;;;;5018279;28;20219;-93
2021/03/14 06:41:03;;;;;;;8.73;3.50;;;6.50;99.90;;;;;;5021182;28;20212;-91
2021/03/14 06:43:39;;;;;;;5.43;4.23;;;6.50;99.90;;;;;;5020309;28;20192;-92
2021/03/14 06:46:28;;;;;;;6.20;4.07;;;6.50;99.90;;;;;;5028967;28;20176;-89
2021/03/14 06:51:39;;;;;;;7.00;3.97;;;6.50;99.90;;;;;;5352691;22;20238;-93
2021/03/14 06:54:26;;;;;;;7.17;4.10;;;6.50;99.90;;;;;;5079880;28;20195;-87
2021/03/14 06:57:17;;;;;;;8.73;4.80;;;6.50;99.90;;;;;;5064603;28;20160;-90
2021/03/14 06:59:50;;;;;;;8.97;4.67;;;6.50;99.90;;;;;;5127075;22;20239;-90
2021/03/14 07:02:27;;;;;;;7.67;4.50;;;6.60;99.90;;;;;;5123948;22;20777;-89
2021/03/14 07:04:57;;;;;;;7.17;4.60;;;6.60;99.90;;;;;;5067785;28;20209;-91
2021/03/14 07:07:32;;;;;;;8.03;3.93;;;6.70;99.90;;;;;;5082866;28;20306;-91
2021/03/14 07:10:10;;;;;;;6.67;4.07;;;6.70;99.90;;;;;;5069559;28;20213;-88
2021/03/14 07:12:44;;;;;;;8.50;4.30;;;6.80;99.90;;;;;;5077368;28;20163;-92
2021/03/14 07:15:21;;;;;;;7.17;4.20;;;6.80;99.90;;;;;;5189663;22;20226;-92
2021/03/14 07:17:56;;;;;;;5.73;4.03;;;6.80;99.90;;;;;;5061427;28;20214;-87
2021/03/14 07:20:30;;;;;;;9.60;3.37;;;6.80;99.90;;;;;;5100734;22;20235;-90
2021/03/14 07:22:59;;;;;;;6.03;3.60;;;6.80;99.90;;;;;;5057079;28;20196;-88
2021/03/14 07:25:26;;;;;;;5.77;3.47;;;6.90;99.90;;;;;;5053397;28;20522;-89
2021/03/14 07:27:52;;;;;;;4.73;2.90;;;6.80;99.90;;;;;;5087720;28;20188;-88
2021/03/14 07:32:54;;;;;;;6.00;3.37;;;6.90;99.90;;;;;;5085835;22;20243;-90
2021/03/14 07:35:21;;;;;;;4.90;3.30;;;8.10;99.90;;;;;;5047031;28;20207;-93
2021/03/14 07:40:22;;;;;;;6.40;3.17;;;7.00;99.90;;;;;;5024189;28;20244;-92
2021/03/14 07:42:48;;;;;;;6.73;3.97;;;7.10;99.90;;;;;;5022152;28;20177;-90
2021/03/14 07:45:16;;;;;;;4.97;2.80;;;7.10;99.90;;;;;;5023947;28;20165;-87
2021/03/14 07:47:44;;;;;;;3.83;2.60;;;7.20;99.90;;;;;;5123117;22;20220;-91
2021/03/14 07:50:16;;;;;;;3.87;2.90;;;7.20;99.90;;;;;;5042755;28;20255;-91
2021/03/14 07:52:42;;;;;;;4.30;2.57;;;7.30;99.90;;;;;;5048065;28;20184;-91
2021/03/14 07:55:12;;;;;;;5.27;2.67;;;7.40;99.90;;;;;;5022602;28;20664;-88
2021/03/14 07:57:43;;;;;;;7.13;3.10;;;7.50;99.90;;;;;;5046463;28;20194;-90
2021/03/14 08:00:24;;;;;;;8.13;3.30;;;7.50;99.90;;;;;;5035879;28;20173;-89
2021/03/14 08:02:54;;;;;;;5.33;2.70;;;7.60;99.90;;;;;;5068659;28;20187;-91
2021/03/14 08:05:40;;;;;;;4.13;2.30;;;7.50;99.90;;;;;;5052467;28;20199;-90
2021/03/14 08:08:10;;;;;;;5.23;2.60;;;7.50;99.90;;;;;;5045792;28;20253;-89
2021/03/14 08:10:40;;;;;;;4.07;2.67;;;7.40;99.90;;;;;;5046477;28;20200;-92
2021/03/14 08:13:12;;;;;;;5.67;2.90;;;7.30;99.90;;;;;;5059094;28;20176;-92
2021/03/14 08:15:38;;;;;;;6.10;3.47;;;7.30;99.90;;;;;;5042699;28;20200;-93
2021/03/14 08:18:04;;;;;;;5.07;3.07;;;7.30;99.90;;;;;;5052070;28;20188;-91
2021/03/14 08:20:45;;;;;;;4.10;2.47;;;7.40;99.90;;;;;;5044754;28;20247;-92
2021/03/14 08:23:16;;;;;;;4.33;2.57;;;7.60;99.90;;;;;;5141003;22;20251;-91
2021/03/14 08:25:45;;;;;;;3.73;2.23;;;7.70;99.90;;;;;;5045969;28;20184;-90
2021/03/14 08:28:24;;;;;;;4.10;2.80;;;7.80;99.90;;;;;;5248498;22;20240;-88
2021/03/14 08:30:51;;;;;;;5.47;2.37;;;7.90;99.90;;;;;;5059837;22;20242;-92
2021/03/14 08:33:28;;;;;;;5.33;2.43;;;8.00;99.90;;;;;;5046130;28;20252;-91
2021/03/14 08:35:59;;;;;;;5.73;2.93;;;8.20;99.90;;;;;;5049077;28;20161;-89
2021/03/14 08:38:35;;;;;;;5.10;2.20;;;8.20;99.90;;;;;;5455983;22;20662;31
2021/03/14 08:41:17;;;;;;;4.30;2.50;;;8.20;99.90;;;;;;5033260;28;20557;-90
2021/03/14 08:43:44;;;;;;;5.30;2.20;;;8.30;99.90;;;;;;5027717;28;20187;-90
2021/03/14 08:46:10;;;;;;;4.57;2.37;;;8.40;99.90;;;;;;5039072;28;20220;-92
2021/03/14 08:51:12;;;;;;;4.20;1.80;;;8.40;99.90;;;;;;4765665;22;20275;-94
2021/03/14 08:53:39;;;;;;;3.77;1.80;;;8.30;99.90;;;;;;5064320;28;20196;-90
2021/03/14 08:56:06;;;;;;;5.90;2.40;;;8.30;99.90;;;;;;5067607;28;20177;-88
2021/03/14 08:58:32;;;;;;;2.10;1.70;;;8.50;99.90;;;;;;5069072;22;20235;-89
2021/03/14 09:01:10;;;;;;;3.77;1.90;;;8.60;99.90;;;;;;5064107;28;20255;-89
2021/03/14 09:03:44;;;;;;;1.97;1.43;;;8.70;99.90;;;;;;5048454;28;20168;-89
2021/03/14 09:06:22;;;;;;;2.57;1.90;;;8.60;99.90;;;;;;5056080;28;20322;-89
2021/03/14 09:08:57;;;;;;;3.63;1.87;;;8.60;99.90;;;;;;5050627;28;20208;-87
2021/03/14 09:11:41;;;;;;;3.80;2.00;;;8.80;99.90;;;;;;5056142;28;20208;-88
2021/03/14 09:14:21;;;;;;;4.00;2.07;;;8.90;99.90;;;;;;5057703;28;20191;-87
2021/03/14 09:16:49;;;;;;;4.90;2.10;;;8.90;99.90;;;;;;5037466;28;20176;-91
2021/03/14 09:19:48;;;;;;;3.60;2.03;;;8.90;99.90;;;;;;5064681;28;20251;-92
2021/03/14 09:22:23;;;;;;;3.43;2.03;;;8.90;99.90;;;;;;5033095;28;20193;-90
2021/03/14 09:24:52;;;;;;;5.33;2.47;;;9.10;99.90;;;;;;5049385;28;20184;-88
2021/03/14 09:27:21;;;;;;;4.50;2.63;;;9.30;99.90;;;;;;5041817;28;20223;-90
2021/03/14 09:29:51;;;;;;;5.00;2.63;;;9.40;99.90;;;;;;5035981;28;20204;-90
2021/03/14 09:32:31;;;;;;;4.60;2.10;;;9.60;99.90;;;;;;5032633;28;20196;-88
2021/03/14 09:35:25;;;;;;;6.77;2.20;;;9.70;97.90;;;;;;5040112;28;20697;-89
2021/03/14 09:37:53;;;;;;;5.67;2.70;;;9.50;98.30;;;;;;5036593;28;20181;-87
2021/03/14 09:40:20;;;;;;;3.97;2.20;;;9.60;98.50;;;;;;5027481;28;20599;-89
2021/03/14 09:42:49;;;;;;;7.17;3.67;;;9.80;98.60;;;;;;5047776;28;20196;-90
2021/03/14 09:45:21;;;;;;;6.13;2.43;;;9.70;99.30;;;;;;5031208;28;20193;-88
2021/03/14 09:48:15;;;;;;;3.90;2.67;;;9.70;98.70;;;;;;5032515;28;20179;-90
2021/03/14 09:50:46;;;;;;;4.33;2.63;;;9.80;97.40;;;;;;5030270;28;20204;-92
2021/03/14 09:53:12;;;;;;;4.57;2.63;;;9.80;97.10;;;;;;5030841;28;20274;-91
2021/03/14 09:55:42;;;;;;;5.73;2.87;;;9.70;97.70;;;;;;5039271;28;20204;-90
2021/03/14 09:58:19;;;;;;;3.33;1.90;;;9.70;98.60;;;;;;5054859;28;20196;-88
2021/03/14 10:00:46;;;;;;;7.77;2.60;;;9.70;97.30;;;;;;5029503;28;20192;-92
2021/03/14 10:03:15;;;;;;;5.47;1.90;;;9.70;96.00;;;;;;5014485;28;20192;-93
2021/03/14 10:05:46;;;;;;;5.67;2.93;;;9.50;95.00;;;;;;5047777;28;20641;-92
2021/03/14 10:08:19;;;;;;;4.73;2.30;;;9.50;96.20;;;;;;5027665;28;20192;-91
2021/03/14 10:10:47;;;;;;;6.23;2.87;;;9.40;90.80;;;;;;5028652;28;20226;-91
2021/03/14 10:13:14;;;;;;;4.87;1.80;;;9.50;90.70;;;;;;5030409;28;20180;-93
2021/03/14 10:15:40;;;;;;;4.00;1.90;;;9.50;90.60;;;;;;5014948;28;20568;-93
2021/03/14 10:18:07;;;;;;;4.63;2.10;;;9.60;89.10;;;;;;5047099;28;20189;-91
2021/03/14 10:20:34;;;;;;;5.63;1.83;;;9.70;87.90;;;;;;5032413;28;20199;-94
2021/03/14 10:23:05;;;;;;;4.40;2.23;;;9.90;85.20;;;;;;5034330;28;20656;-95
2021/03/14 10:25:34;;;;;;;4.07;2.10;;;10.00;82.70;;;;;;5037166;28;20319;-90
2021/03/14 10:28:13;;;;;;;3.37;1.90;;;10.20;83.30;;;;;;5031474;28;20181;-90
2021/03/14 10:30:42;;;;;;;3.83;1.90;;;10.10;81.60;;;;;;5042594;28;20213;-92
2021/03/14 10:33:14;;;;;;;5.10;2.07;;;10.00;76.70;;;;;;5034581;28;20193;-94
2021/03/14 10:35:42;;;;;;;3.57;1.87;;;10.20;78.40;;;;;;5036224;28;20206;-91
2021/03/14 10:38:19;;;;;;;4.20;1.70;;;10.40;75.80;;;;;;5036763;28;20191;-95
2021/03/14 10:40:47;;;;;;;4.47;1.60;;;10.30;74.40;;;;;;5027284;28;20192;-90
2021/03/14 10:43:20;;;;;;;4.13;1.63;;;10.40;73.10;;;;;;5051237;28;20185;-92
2021/03/14 10:45:46;;;;;;;1.97;1.20;;;10.40;73.90;;;;;;5028759;28;20196;-89
2021/03/14 10:48:12;;;;;;;4.60;1.93;;;10.30;71.50;;;;;;5029534;28;20193;-89
2021/03/14 10:50:38;;;;;;;3.97;1.53;;;10.40;72.00;;;;;;5032164;28;20215;-91
2021/03/14 10:53:14;;;;;;;2.77;1.67;;;10.40;70.70;;;;;;5018241;28;20188;-91
2021/03/14 10:55:42;;;;;;;5.23;2.30;;;10.30;69.40;;;;;;5051627;28;20641;-93
2021/03/14 10:58:19;;;;;;;7.43;2.30;;;10.30;70.20;;;;;;5018492;28;20303;-89
2021/03/14 11:00:50;;;;;;;2.80;1.60;;;10.30;68.70;;;;;;5051572;28;20192;-90
2021/03/14 11:03:37;;;;;;;4.00;1.90;;;10.20;69.70;;;;;;5046284;28;20334;-92
2021/03/14 11:06:09;;;;;;;4.93;2.20;;;10.20;69.70;;;;;;5033584;28;20189;-95
2021/03/14 11:08:53;;;;;;;3.23;2.10;;;10.20;70.70;;;;;;5035790;28;20177;-90
2021/03/14 11:11:23;;;;;;;1.87;1.37;;;10.40;70.70;;;;;;5031751;28;20208;-88
2021/03/14 11:13:50;;;;;;;4.07;1.87;;;10.30;68.00;;;;;;5034053;28;20192;-90
2021/03/14 11:16:15;;;;;;;4.57;2.07;;;10.30;68.50;;;;;;5049267;28;20210;-91
2021/03/14 11:18:41;;;;;;;7.73;2.30;;;10.30;69.00;;;;;;5030673;28;20283;-91
2021/03/14 11:21:09;;;;;;;5.87;2.10;;;10.50;69.50;;;;;;5020659;28;20561;-93
2021/03/14 11:23:34;;;;;;;4.27;1.50;;;10.70;69.40;;;;;;5024026;28;20191;-92
2021/03/14 11:26:00;;;;;;;5.30;1.90;;;9.60;69.00;;;;;;5018900;28;20189;-90
2021/03/14 11:28:29;;;;;;;5.60;1.70;;;10.70;69.00;;;;;;5046183;28;20188;-94
2021/03/14 11:30:55;;;;;;;4.20;2.13;;;10.70;67.10;;;;;;5036643;28;20287;-90
2021/03/14 11:33:21;;;;;;;2.63;1.67;;;10.40;65.20;;;;;;5052268;28;20189;-88
2021/03/14 11:35:47;;;;;;;3.93;1.87;;;10.30;67.10;;;;;;5040009;28;20246;-90
2021/03/14 11:38:12;;;;;;;1.87;1.33;;;10.30;67.20;;;;;;5021471;28;20188;-90
2021/03/14 11:40:38;;;;;;;3.13;1.80;;;10.20;68.30;;;;;;5036230;28;20208;-90
2021/03/14 11:43:04;;;;;;;6.67;2.27;;;10.30;69.90;;;;;;5053030;28;20200;-89
2021/03/14 11:45:29;;;;;;;2.70;1.60;;;10.20;69.70;;;;;;5043969;28;20249;-88
2021/03/14 11:47:55;;;;;;;6.60;2.00;;;10.30;68.00;;;;;;5051528;28;20192;-88
2021/03/14 11:50:21;;;;;;;5.40;2.33;;;10.30;67.10;;;;;;5051325;28;20255;-89
2021/03/14 11:52:49;;;;;;;5.97;2.33;;;10.30;66.70;;;;;;5052276;28;20169;-90
2021/03/14 11:55:16;;;;;;;4.53;1.90;;;10.10;67.90;;;;;;5036276;28;20185;-92
2021/03/14 11:57:41;;;;;;;4.23;1.77;;;10.60;66.50;;;;;;5043871;28;20276;-93
2021/03/14 12:00:08;;;;;;;4.03;1.60;;;10.60;65.60;;;;;;5048163;28;20250;-91
2021/03/14 12:02:35;;;;;;;4.30;2.00;;;10.60;65.90;;;;;;5063032;28;20204;-88
2021/03/14 12:05:03;;;;;;;3.73;2.20;;;10.70;66.20;;;;;;5106384;22;20204;-91
2021/03/14 12:07:31;;;;;;;3.17;1.70;;;10.70;69.80;;;;;;5033128;28;20196;-92
2021/03/14 12:09:59;;;;;;;5.10;2.20;;;11.10;68.30;;;;;;5060970;28;20184;-93
2021/03/14 12:12:27;;;;;;;3.83;1.73;;;11.00;66.90;;;;;;5034392;28;20187;-95
2021/03/14 12:14:53;;;;;;;2.43;1.50;;;11.20;63.60;;;;;;5059407;28;20200;-93
2021/03/14 12:17:19;;;;;;;3.13;1.83;;;11.00;61.10;;;;;;5032896;28;20235;-91
2021/03/14 12:19:45;;;;;;;4.43;2.33;;;10.70;61.90;;;;;;5046227;28;20217;-89
2021/03/14 12:22:10;;;;;;;6.77;2.73;;;10.90;61.00;;;;;;5062155;28;20200;-92
2021/03/14 12:24:36;;;;;;;5.70;2.17;;;10.70;61.40;;;;;;5045192;28;20200;-90
2021/03/14 12:27:02;;;;;;;6.03;2.63;;;10.70;61.80;;;;;;5043608;28;20188;-88
2021/03/14 12:29:28;;;;;;;6.37;2.63;;;10.60;61.20;;;;;;5028928;28;20304;-84
2021/03/14 12:31:53;;;;;;;4.07;2.17;;;10.70;61.60;;;;;;5041099;28;20200;-91
2021/03/14 12:34:19;;;;;;;5.80;2.47;;;10.60;62.10;;;;;;5043592;28;20188;-87
2021/03/14 12:36:45;;;;;;;5.10;2.40;;;10.60;62.70;;;;;;5041861;28;20197;-86
2021/03/14 12:39:10;;;;;;;3.60;2.20;;;10.50;62.80;;;;;;5021330;28;20212;-87
2021/03/14 12:41:36;;;;;;;4.47;2.50;;;10.60;62.20;;;;;;5051984;28;20646;-87
2021/03/14 12:44:02;;;;;;;4.13;1.97;;;10.70;61.90;;;;;;5015650;28;20227;-86
2021/03/14 12:46:27;;;;;;;6.53;2.80;;;10.60;61.90;;;;;;5047286;28;20183;-89
2021/03/14 12:48:53;;;;;;;7.53;2.60;;;10.50;63.50;;;;;;5072445;28;20623;-88
2021/03/14 12:51:19;;;;;;;4.37;2.53;;;10.60;63.90;;;;;;5039423;28;20192;-88
2021/03/14 12:53:44;;;;;;;4.83;2.73;;;10.70;64.00;;;;;;5042974;28;20185;-91
2021/03/14 12:56:10;;;;;;;5.70;2.80;;;10.60;65.30;;;;;;5051960;28;20191;-86
2021/03/14 12:58:36;;;;;;;4.23;2.80;;;10.60;64.30;;;;;;5042613;28;20251;-88
2021/03/14 13:01:01;;;;;;;4.70;3.00;;;10.50;66.80;;;;;;5038969;28;20203;-87
2021/03/14 13:03:27;;;;;;;3.97;2.37;;;10.60;65.00;;;;;;5045900;28;20184;-87
2021/03/14 13:05:53;;;;;;;3.97;2.80;;;10.40;64.20;;;;;;5036324;28;20232;-87
2021/03/14 13:08:18;;;;;;;4.00;2.77;;;10.30;63.70;;;;;;5052685;28;20180;-89
2021/03/14 13:10:44;;;;;;;6.27;2.60;;;10.30;64.50;;;;;;5052135;28;20203;-89
2021/03/14 13:13:10;;;;;;;4.90;2.53;;;10.20;65.60;;;;;;5018770;28;20254;-84